Terminal Aerodrome Forecast
Issued by NWS

Home | Current Version | Previous Version | Graphics & Text | Print | Product List | Glossary On
Versions: 1 2 3 4 5 6 7 8 9 10 11 12 13
000
FTUS45 KGGW 211720
TAFOLF
TAF
KOLF 211720Z 2118/2218 18008KT P6SM SKC
     FM212200 21010KT P6SM SCT220
     FM220400 31012KT P6SM BKN110
     FM220700 28007KT P6SM BKN080=

USA.gov is the U.S. government's official web portal to all federal, state and local government web resources and services.